Athol Springs, NY (14010)

3:14 PM EDT on August 23, 2014 (GMT -0400)
Hamburg | Change Station
CLOSE
Current Station
Personal Weather Station
Location: Hamburg, NY
Elevation: 594 ft
Nearby Weather Stations

Elev 594 ft 42.76 °N, 78.88 °W | Updated 2 minutes ago

Mostly Cloudy
Mostly Cloudy
78.6 °F
Feels Like 81 °F
N
6.0
Wind Variable Wind from ENE
Gusts 10.0 mph

Today
High -- | Low -- °F
--% Chance of Precip.
Yesterday
High -- | Low -- °F
Precip. -- in
6:30 AM 8:04 PM
Waning Crescent, 3% visible
Pressure 30.05 in
Visibility 10.0 miles
Clouds Few 2400 ft
Scattered Clouds 3400 ft
Mostly Cloudy 4300 ft
Mostly Cloudy 16000 ft
Heat Index 81 °F
Dew Point 67 °F
Humidity 67%
Rainfall 0.00 in
Snow Depth Not available.
UV 4 out of 12
Pollen 9.10 out of 12
Ozone Good
PM2.5 Good
Flu Activity Not available.
METAR KBUF 231854Z 04010KT 10SM FEW024 SCT034 BKN043 BKN160 26/18 A3006 RMK AO2 SLP176 T02560183

More Conditions Fewer Conditions

Pressure 30.05 in
Visibility 10.0 miles
Clouds Few 2400 ft
Scattered Clouds 3400 ft
Mostly Cloudy 4300 ft
Mostly Cloudy 16000 ft
Heat Index 81 °F
Dew Point 67 °F
Humidity 67%
Rainfall 0.00 in
Snow Depth Not available.
UV 4 out of 12
Pollen 9.10 out of 12
Ozone Good
PM2.5 Good
Flu Activity Not available.
METAR KBUF 231854Z 04010KT 10SM FEW024 SCT034 BKN043 BKN160 26/18 A3006 RMK AO2 SLP176 T02560183

More Conditions Fewer Conditions

10-Day Weather Forecast

Almanac

Astronomy

Aug. 23, 2014 Rise Set
Actual Time 6:30 AM EDT 8:04 PM EDT
Civil Twilight 6:00 AM EDT 8:34 PM EDT
Nautical Twilight 5:24 AM EDT 9:10 PM EDT
Astronomical Twilight 4:45 AM EDT 9:48 PM EDT
Moon 4:44 AM EDT 6:48 PM EDT
Length of Visible Light 14h 33m
Length of Day
13h 34m
Tomorrow will be 2m 41s shorter.
Waning Crescent, 3% of the Moon is Illuminated
Today
Waning Crescent
Aug 25
New
Sep 2
First Quarter
Sep 8
Full
Sep 15
Last Quarter

Today's Extremes

State Highs State Lows

Community

WunderPhotos

Upload Photos

1,746,585 photos uploaded!

WunderBlogs® & News

Nearby

Air Quality

  Air Quality AQ Index Pollutant
Yesterday Good
PM2.5
Yesterday Good
OZONE
Current Good
PM2.5
Current Good
OZONE
Saturday Good
PM2.5
Saturday Good
OZONE
Sunday Good
PM2.5
Sunday Good
OZONE
Monday Moderate
PM2.5
Monday Good
OZONE

Snow Depth

Station Depth Elevation
No new snow has been reported.

Earthquake Activity

City Distance Mag. Time & Date
No recent earthquake activity has been reported nearby.
Minimum magnitude displayed is 2.5.

Coastal Water Temperatures

Place Temperature
Buffalo, NY 72.0 °F

Nearby Weather Stations